sensor_id;sensor_type;location;lat;lon;timestamp;P1;durP1;ratioP1;P2;durP2;ratioP2
17193;SDS011;8713;48.388;10.928;2022-07-21T03:51:52;9.95;;;6.30;;
17193;SDS011;8713;48.388;10.928;2022-07-21T03:53:07;12.43;;;6.60;;
17193;SDS011;8713;48.388;10.928;2022-07-21T03:54:16;10.05;;;7.03;;
17193;SDS011;8713;48.388;10.928;2022-07-21T03:55:26;11.18;;;7.20;;
17193;SDS011;8713;48.388;10.928;2022-07-21T03:56:36;15.55;;;7.25;;
17193;SDS011;8713;48.388;10.928;2022-07-21T03:57:47;10.07;;;6.70;;
17193;SDS011;8713;48.388;10.928;2022-07-21T03:59:01;11.52;;;7.00;;
17193;SDS011;8713;48.388;10.928;2022-07-21T04:00:12;11.18;;;7.07;;
17193;SDS011;8713;48.388;10.928;2022-07-21T04:01:37;11.35;;;6.95;;
17193;SDS011;8713;48.388;10.928;2022-07-21T04:02:46;13.98;;;7.35;;
17193;SDS011;8713;48.388;10.928;2022-07-21T04:03:57;10.73;;;6.90;;
17193;SDS011;8713;48.388;10.928;2022-07-21T04:05:07;9.25;;;6.93;;
17193;SDS011;8713;48.388;10.928;2022-07-21T04:06:16;10.43;;;6.88;;
17193;SDS011;8713;48.388;10.928;2022-07-21T04:07:25;13.13;;;7.60;;
17193;SDS011;8713;48.388;10.928;2022-07-21T04:08:35;11.95;;;6.93;;
17193;SDS011;8713;48.388;10.928;2022-07-21T04:09:46;8.68;;;6.88;;
17193;SDS011;8713;48.388;10.928;2022-07-21T04:10:56;9.60;;;6.50;;
17193;SDS011;8713;48.388;10.928;2022-07-21T04:12:07;10.18;;;6.95;;
17193;SDS011;8713;48.388;10.928;2022-07-21T04:13:17;11.45;;;7.13;;
17193;SDS011;8713;48.388;10.928;2022-07-21T04:14:26;10.18;;;6.60;;
17193;SDS011;8713;48.388;10.928;2022-07-21T04:15:36;12.30;;;6.68;;
17193;SDS011;8713;48.388;10.928;2022-07-21T04:16:46;8.80;;;6.55;;
17193;SDS011;8713;48.388;10.928;2022-07-21T04:17:56;9.93;;;6.70;;
17193;SDS011;8713;48.388;10.928;2022-07-21T04:19:05;11.55;;;6.68;;
17193;SDS011;8713;48.388;10.928;2022-07-21T04:20:15;9.32;;;6.85;;
17193;SDS011;8713;48.388;10.928;2022-07-21T04:21:25;9.52;;;6.35;;
17193;SDS011;8713;48.388;10.928;2022-07-21T04:22:35;10.73;;;7.22;;
17193;SDS011;8713;48.388;10.928;2022-07-21T04:23:45;11.15;;;6.88;;
17193;SDS011;8713;48.388;10.928;2022-07-21T04:24:54;10.85;;;6.68;;
17193;SDS011;8713;48.388;10.928;2022-07-21T04:26:04;8.73;;;6.82;;
17193;SDS011;8713;48.388;10.928;2022-07-21T04:27:13;10.07;;;6.80;;
17193;SDS011;8713;48.388;10.928;2022-07-21T04:28:23;8.38;;;6.20;;
17193;SDS011;8713;48.388;10.928;2022-07-21T04:29:32;9.32;;;6.57;;
17193;SDS011;8713;48.388;10.928;2022-07-21T04:30:42;11.00;;;7.13;;
17193;SDS011;8713;48.388;10.928;2022-07-21T04:31:51;11.32;;;6.60;;
17193;SDS011;8713;48.388;10.928;2022-07-21T04:33:01;9.43;;;6.93;;
17193;SDS011;8713;48.388;10.928;2022-07-21T04:34:10;10.00;;;6.97;;
17193;SDS011;8713;48.388;10.928;2022-07-21T04:35:20;12.90;;;7.32;;
17193;SDS011;8713;48.388;10.928;2022-07-21T04:36:29;11.13;;;7.30;;
17193;SDS011;8713;48.388;10.928;2022-07-21T04:37:39;11.25;;;7.20;;
17193;SDS011;8713;48.388;10.928;2022-07-21T04:38:49;9.68;;;6.82;;
17193;SDS011;8713;48.388;10.928;2022-07-21T04:39:58;13.98;;;6.93;;
17193;SDS011;8713;48.388;10.928;2022-07-21T04:41:08;13.07;;;7.65;;
17193;SDS011;8713;48.388;10.928;2022-07-21T04:42:17;11.02;;;7.47;;
17193;SDS011;8713;48.388;10.928;2022-07-21T04:43:27;11.30;;;7.53;;
17193;SDS011;8713;48.388;10.928;2022-07-21T04:44:36;11.65;;;7.82;;
17193;SDS011;8713;48.388;10.928;2022-07-21T04:45:46;12.93;;;7.65;;
17193;SDS011;8713;48.388;10.928;2022-07-21T04:46:55;12.45;;;7.40;;
17193;SDS011;8713;48.388;10.928;2022-07-21T04:48:05;11.30;;;7.78;;
17193;SDS011;8713;48.388;10.928;2022-07-21T04:49:14;14.38;;;7.75;;
17193;SDS011;8713;48.388;10.928;2022-07-21T04:50:25;12.60;;;7.57;;
17193;SDS011;8713;48.388;10.928;2022-07-21T04:51:35;12.50;;;8.05;;
17193;SDS011;8713;48.388;10.928;2022-07-21T04:52:45;12.60;;;8.15;;
17193;SDS011;8713;48.388;10.928;2022-07-21T04:53:54;13.02;;;8.35;;
17193;SDS011;8713;48.388;10.928;2022-07-21T04:55:04;13.02;;;8.30;;
17193;SDS011;8713;48.388;10.928;2022-07-21T04:56:14;10.05;;;7.93;;
17193;SDS011;8713;48.388;10.928;2022-07-21T04:57:23;13.07;;;8.23;;
17193;SDS011;8713;48.388;10.928;2022-07-21T04:58:33;14.75;;;9.45;;
17193;SDS011;8713;48.388;10.928;2022-07-21T04:59:43;13.02;;;8.73;;
17193;SDS011;8713;48.388;10.928;2022-07-21T05:00:52;11.38;;;7.65;;
17193;SDS011;8713;48.388;10.928;2022-07-21T05:02:02;11.90;;;8.52;;
17193;SDS011;8713;48.388;10.928;2022-07-21T05:03:11;12.93;;;9.02;;
17193;SDS011;8713;48.388;10.928;2022-07-21T05:04:22;12.45;;;8.15;;
17193;SDS011;8713;48.388;10.928;2022-07-21T05:05:31;11.10;;;8.50;;
17193;SDS011;8713;48.388;10.928;2022-07-21T05:06:41;13.38;;;9.05;;
17193;SDS011;8713;48.388;10.928;2022-07-21T05:07:50;10.35;;;7.97;;
17193;SDS011;8713;48.388;10.928;2022-07-21T05:09:00;11.68;;;8.10;;
17193;SDS011;8713;48.388;10.928;2022-07-21T05:10:11;11.55;;;8.63;;
17193;SDS011;8713;48.388;10.928;2022-07-21T05:11:22;12.85;;;9.27;;
17193;SDS011;8713;48.388;10.928;2022-07-21T05:12:32;12.23;;;8.35;;
17193;SDS011;8713;48.388;10.928;2022-07-21T05:13:41;12.88;;;8.50;;
17193;SDS011;8713;48.388;10.928;2022-07-21T05:14:51;14.27;;;8.90;;
17193;SDS011;8713;48.388;10.928;2022-07-21T05:16:01;11.93;;;8.85;;
17193;SDS011;8713;48.388;10.928;2022-07-21T05:17:10;11.90;;;8.63;;
17193;SDS011;8713;48.388;10.928;2022-07-21T05:18:20;14.68;;;8.63;;
17193;SDS011;8713;48.388;10.928;2022-07-21T05:19:29;12.98;;;8.13;;
17193;SDS011;8713;48.388;10.928;2022-07-21T05:20:38;13.00;;;8.48;;
17193;SDS011;8713;48.388;10.928;2022-07-21T05:21:48;16.80;;;8.82;;
17193;SDS011;8713;48.388;10.928;2022-07-21T05:22:57;14.02;;;8.73;;
17193;SDS011;8713;48.388;10.928;2022-07-21T05:24:07;14.30;;;8.88;;
17193;SDS011;8713;48.388;10.928;2022-07-21T05:25:16;13.57;;;8.95;;
17193;SDS011;8713;48.388;10.928;2022-07-21T05:26:25;14.60;;;8.38;;
17193;SDS011;8713;48.388;10.928;2022-07-21T05:27:35;12.98;;;8.55;;
17193;SDS011;8713;48.388;10.928;2022-07-21T05:28:45;13.32;;;9.00;;
17193;SDS011;8713;48.388;10.928;2022-07-21T05:29:54;16.40;;;9.10;;
17193;SDS011;8713;48.388;10.928;2022-07-21T05:31:04;14.25;;;8.95;;
17193;SDS011;8713;48.388;10.928;2022-07-21T05:32:13;12.73;;;8.55;;
17193;SDS011;8713;48.388;10.928;2022-07-21T05:33:23;11.38;;;8.60;;
17193;SDS011;8713;48.388;10.928;2022-07-21T05:34:33;13.88;;;9.00;;
17193;SDS011;8713;48.388;10.928;2022-07-21T05:35:42;12.15;;;8.68;;
17193;SDS011;8713;48.388;10.928;2022-07-21T05:36:52;14.00;;;8.57;;
17193;SDS011;8713;48.388;10.928;2022-07-21T05:38:02;10.88;;;8.20;;
17193;SDS011;8713;48.388;10.928;2022-07-21T05:39:11;13.50;;;8.90;;
17193;SDS011;8713;48.388;10.928;2022-07-21T05:40:21;12.65;;;8.82;;
17193;SDS011;8713;48.388;10.928;2022-07-21T05:41:30;15.30;;;9.00;;
17193;SDS011;8713;48.388;10.928;2022-07-21T05:42:40;13.48;;;9.23;;
17193;SDS011;8713;48.388;10.928;2022-07-21T05:43:49;13.35;;;9.10;;
17193;SDS011;8713;48.388;10.928;2022-07-21T05:44:59;14.52;;;9.50;;
17193;SDS011;8713;48.388;10.928;2022-07-21T05:46:08;13.60;;;8.93;;
17193;SDS011;8713;48.388;10.928;2022-07-21T05:47:18;12.68;;;8.52;;
17193;SDS011;8713;48.388;10.928;2022-07-21T05:48:27;13.68;;;9.10;;
17193;SDS011;8713;48.388;10.928;2022-07-21T05:49:37;13.45;;;8.85;;
17193;SDS011;8713;48.388;10.928;2022-07-21T05:50:46;12.20;;;8.77;;
17193;SDS011;8713;48.388;10.928;2022-07-21T05:51:56;12.65;;;8.80;;
17193;SDS011;8713;48.388;10.928;2022-07-21T05:53:05;16.42;;;9.60;;
17193;SDS011;8713;48.388;10.928;2022-07-21T05:54:15;12.57;;;9.05;;
17193;SDS011;8713;48.388;10.928;2022-07-21T05:55:24;13.85;;;8.55;;
17193;SDS011;8713;48.388;10.928;2022-07-21T05:56:34;11.73;;;8.68;;
17193;SDS011;8713;48.388;10.928;2022-07-21T05:57:44;14.70;;;9.77;;
17193;SDS011;8713;48.388;10.928;2022-07-21T05:58:53;14.07;;;8.90;;
17193;SDS011;8713;48.388;10.928;2022-07-21T06:00:03;13.07;;;8.10;;
17193;SDS011;8713;48.388;10.928;2022-07-21T06:01:16;12.32;;;8.43;;
17193;SDS011;8713;48.388;10.928;2022-07-21T06:02:26;12.40;;;8.43;;
17193;SDS011;8713;48.388;10.928;2022-07-21T06:03:40;14.25;;;8.70;;
17193;SDS011;8713;48.388;10.928;2022-07-21T06:04:53;12.00;;;8.73;;
17193;SDS011;8713;48.388;10.928;2022-07-21T06:06:03;12.57;;;8.88;;
17193;SDS011;8713;48.388;10.928;2022-07-21T06:07:13;10.80;;;7.95;;
17193;SDS011;8713;48.388;10.928;2022-07-21T06:08:23;13.52;;;8.88;;
17193;SDS011;8713;48.388;10.928;2022-07-21T06:09:32;13.15;;;8.60;;
17193;SDS011;8713;48.388;10.928;2022-07-21T06:10:42;16.42;;;8.65;;
17193;SDS011;8713;48.388;10.928;2022-07-21T06:11:51;13.50;;;8.20;;
17193;SDS011;8713;48.388;10.928;2022-07-21T06:13:01;13.98;;;8.95;;
17193;SDS011;8713;48.388;10.928;2022-07-21T06:14:10;14.68;;;8.80;;
17193;SDS011;8713;48.388;10.928;2022-07-21T06:15:19;13.45;;;8.93;;
17193;SDS011;8713;48.388;10.928;2022-07-21T06:16:29;12.32;;;8.50;;
17193;SDS011;8713;48.388;10.928;2022-07-21T06:17:42;15.05;;;9.20;;
17193;SDS011;8713;48.388;10.928;2022-07-21T06:18:53;13.48;;;9.07;;
17193;SDS011;8713;48.388;10.928;2022-07-21T06:20:04;11.88;;;8.02;;
17193;SDS011;8713;48.388;10.928;2022-07-21T06:21:15;11.90;;;8.27;;
17193;SDS011;8713;48.388;10.928;2022-07-21T06:22:25;11.52;;;8.40;;
17193;SDS011;8713;48.388;10.928;2022-07-21T06:23:34;13.95;;;8.90;;
17193;SDS011;8713;48.388;10.928;2022-07-21T06:24:44;11.88;;;8.43;;
17193;SDS011;8713;48.388;10.928;2022-07-21T06:25:53;11.43;;;8.25;;
17193;SDS011;8713;48.388;10.928;2022-07-21T06:27:03;13.07;;;8.60;;
17193;SDS011;8713;48.388;10.928;2022-07-21T06:28:13;15.32;;;8.85;;
17193;SDS011;8713;48.388;10.928;2022-07-21T06:29:23;13.65;;;9.18;;
17193;SDS011;8713;48.388;10.928;2022-07-21T06:30:33;13.77;;;9.07;;
17193;SDS011;8713;48.388;10.928;2022-07-21T06:31:42;13.57;;;8.63;;
17193;SDS011;8713;48.388;10.928;2022-07-21T06:32:52;11.23;;;8.00;;
17193;SDS011;8713;48.388;10.928;2022-07-21T06:34:01;13.95;;;8.45;;
17193;SDS011;8713;48.388;10.928;2022-07-21T06:35:11;13.93;;;8.80;;
17193;SDS011;8713;48.388;10.928;2022-07-21T06:36:20;11.90;;;8.27;;
17193;SDS011;8713;48.388;10.928;2022-07-21T06:37:30;15.55;;;8.35;;
17193;SDS011;8713;48.388;10.928;2022-07-21T06:38:39;12.85;;;8.80;;
17193;SDS011;8713;48.388;10.928;2022-07-21T06:39:49;12.25;;;7.82;;
17193;SDS011;8713;48.388;10.928;2022-07-21T06:40:58;13.88;;;8.75;;
17193;SDS011;8713;48.388;10.928;2022-07-21T06:42:08;11.32;;;8.43;;
17193;SDS011;8713;48.388;10.928;2022-07-21T06:43:19;13.77;;;7.93;;
17193;SDS011;8713;48.388;10.928;2022-07-21T06:44:28;10.23;;;7.45;;
17193;SDS011;8713;48.388;10.928;2022-07-21T06:45:38;11.43;;;7.88;;
17193;SDS011;8713;48.388;10.928;2022-07-21T06:46:47;12.25;;;8.35;;
17193;SDS011;8713;48.388;10.928;2022-07-21T06:48:03;11.60;;;7.80;;
17193;SDS011;8713;48.388;10.928;2022-07-21T06:49:16;11.95;;;7.38;;
17193;SDS011;8713;48.388;10.928;2022-07-21T06:50:25;10.52;;;7.35;;
17193;SDS011;8713;48.388;10.928;2022-07-21T06:51:35;10.98;;;7.38;;
17193;SDS011;8713;48.388;10.928;2022-07-21T06:52:44;12.32;;;7.60;;
17193;SDS011;8713;48.388;10.928;2022-07-21T06:53:54;12.15;;;7.35;;
17193;SDS011;8713;48.388;10.928;2022-07-21T06:55:04;11.73;;;7.75;;
17193;SDS011;8713;48.388;10.928;2022-07-21T06:56:16;13.07;;;8.15;;
17193;SDS011;8713;48.388;10.928;2022-07-21T06:57:26;11.07;;;7.68;;
17193;SDS011;8713;48.388;10.928;2022-07-21T06:58:35;11.13;;;8.20;;
17193;SDS011;8713;48.388;10.928;2022-07-21T06:59:45;12.30;;;8.13;;
17193;SDS011;8713;48.388;10.928;2022-07-21T07:00:55;11.02;;;7.50;;
17193;SDS011;8713;48.388;10.928;2022-07-21T07:02:04;13.15;;;8.00;;
17193;SDS011;8713;48.388;10.928;2022-07-21T07:03:14;9.40;;;7.28;;
17193;SDS011;8713;48.388;10.928;2022-07-21T07:04:23;13.48;;;7.80;;
17193;SDS011;8713;48.388;10.928;2022-07-21T07:05:33;11.35;;;7.75;;
17193;SDS011;8713;48.388;10.928;2022-07-21T07:06:43;11.95;;;8.43;;
17193;SDS011;8713;48.388;10.928;2022-07-21T07:07:52;10.32;;;7.45;;
17193;SDS011;8713;48.388;10.928;2022-07-21T07:09:02;12.52;;;8.23;;
17193;SDS011;8713;48.388;10.928;2022-07-21T07:10:11;11.68;;;8.00;;
17193;SDS011;8713;48.388;10.928;2022-07-21T07:11:21;9.98;;;7.15;;
17193;SDS011;8713;48.388;10.928;2022-07-21T07:12:30;11.80;;;7.50;;
17193;SDS011;8713;48.388;10.928;2022-07-21T07:13:40;11.55;;;8.00;;
17193;SDS011;8713;48.388;10.928;2022-07-21T07:14:49;11.00;;;7.85;;
17193;SDS011;8713;48.388;10.928;2022-07-21T07:15:59;12.10;;;8.45;;
17193;SDS011;8713;48.388;10.928;2022-07-21T07:17:08;13.70;;;8.07;;
17193;SDS011;8713;48.388;10.928;2022-07-21T07:18:17;12.93;;;8.60;;
17193;SDS011;8713;48.388;10.928;2022-07-21T07:19:29;10.70;;;7.65;;
17193;SDS011;8713;48.388;10.928;2022-07-21T07:20:39;12.25;;;8.13;;
17193;SDS011;8713;48.388;10.928;2022-07-21T07:21:48;13.88;;;8.77;;
17193;SDS011;8713;48.388;10.928;2022-07-21T07:22:58;12.73;;;7.85;;
17193;SDS011;8713;48.388;10.928;2022-07-21T07:24:07;11.20;;;7.90;;
17193;SDS011;8713;48.388;10.928;2022-07-21T07:25:17;11.63;;;7.75;;
17193;SDS011;8713;48.388;10.928;2022-07-21T07:26:26;11.05;;;8.30;;
17193;SDS011;8713;48.388;10.928;2022-07-21T07:27:36;11.77;;;7.97;;
17193;SDS011;8713;48.388;10.928;2022-07-21T07:28:45;10.40;;;7.63;;
17193;SDS011;8713;48.388;10.928;2022-07-21T07:29:55;11.90;;;8.50;;
17193;SDS011;8713;48.388;10.928;2022-07-21T07:31:05;12.63;;;8.15;;
17193;SDS011;8713;48.388;10.928;2022-07-21T07:32:14;14.27;;;8.20;;
17193;SDS011;8713;48.388;10.928;2022-07-21T07:33:23;11.80;;;8.10;;
17193;SDS011;8713;48.388;10.928;2022-07-21T07:34:34;9.90;;;7.53;;
17193;SDS011;8713;48.388;10.928;2022-07-21T07:35:43;11.82;;;7.93;;
17193;SDS011;8713;48.388;10.928;2022-07-21T07:36:53;10.85;;;7.95;;
17193;SDS011;8713;48.388;10.928;2022-07-21T07:38:03;11.57;;;7.78;;
17193;SDS011;8713;48.388;10.928;2022-07-21T07:39:12;11.18;;;7.25;;
17193;SDS011;8713;48.388;10.928;2022-07-21T07:40:24;13.75;;;8.18;;
17193;SDS011;8713;48.388;10.928;2022-07-21T07:41:33;10.82;;;7.28;;
17193;SDS011;8713;48.388;10.928;2022-07-21T07:42:43;12.45;;;7.43;;
17193;SDS011;8713;48.388;10.928;2022-07-21T07:43:52;9.18;;;7.18;;
17193;SDS011;8713;48.388;10.928;2022-07-21T07:45:03;10.90;;;7.68;;
17193;SDS011;8713;48.388;10.928;2022-07-21T07:46:15;10.60;;;7.22;;
17193;SDS011;8713;48.388;10.928;2022-07-21T07:47:24;11.40;;;7.97;;
17193;SDS011;8713;48.388;10.928;2022-07-21T07:48:33;14.25;;;7.40;;
17193;SDS011;8713;48.388;10.928;2022-07-21T07:49:44;10.15;;;6.82;;
17193;SDS011;8713;48.388;10.928;2022-07-21T07:50:54;12.52;;;6.65;;
17193;SDS011;8713;48.388;10.928;2022-07-21T07:52:03;9.15;;;6.38;;
17193;SDS011;8713;48.388;10.928;2022-07-21T07:53:14;13.32;;;6.97;;
17193;SDS011;8713;48.388;10.928;2022-07-21T07:54:23;10.32;;;7.05;;
17193;SDS011;8713;48.388;10.928;2022-07-21T07:55:33;10.32;;;7.40;;
17193;SDS011;8713;48.388;10.928;2022-07-21T07:56:42;10.57;;;7.25;;
17193;SDS011;8713;48.388;10.928;2022-07-21T07:57:51;11.25;;;7.13;;
17193;SDS011;8713;48.388;10.928;2022-07-21T07:59:01;10.10;;;7.07;;
17193;SDS011;8713;48.388;10.928;2022-07-21T08:00:15;11.23;;;7.30;;
17193;SDS011;8713;48.388;10.928;2022-07-21T08:01:26;11.38;;;7.18;;
17193;SDS011;8713;48.388;10.928;2022-07-21T08:02:35;12.15;;;7.53;;
17193;SDS011;8713;48.388;10.928;2022-07-21T08:03:45;11.77;;;7.35;;
17193;SDS011;8713;48.388;10.928;2022-07-21T08:04:54;11.27;;;7.15;;
17193;SDS011;8713;48.388;10.928;2022-07-21T08:06:04;10.02;;;7.20;;
17193;SDS011;8713;48.388;10.928;2022-07-21T08:07:14;11.55;;;7.68;;
17193;SDS011;8713;48.388;10.928;2022-07-21T08:08:24;11.02;;;7.70;;
17193;SDS011;8713;48.388;10.928;2022-07-21T08:09:34;10.48;;;8.15;;
17193;SDS011;8713;48.388;10.928;2022-07-21T08:10:44;11.60;;;7.70;;
17193;SDS011;8713;48.388;10.928;2022-07-21T08:11:54;12.30;;;8.32;;
17193;SDS011;8713;48.388;10.928;2022-07-21T08:13:04;10.45;;;7.22;;
17193;SDS011;8713;48.388;10.928;2022-07-21T08:14:13;10.48;;;7.55;;
17193;SDS011;8713;48.388;10.928;2022-07-21T08:15:23;11.07;;;7.68;;
17193;SDS011;8713;48.388;10.928;2022-07-21T08:16:33;12.80;;;7.25;;
17193;SDS011;8713;48.388;10.928;2022-07-21T08:17:43;11.15;;;7.60;;
17193;SDS011;8713;48.388;10.928;2022-07-21T08:18:53;10.88;;;7.75;;
17193;SDS011;8713;48.388;10.928;2022-07-21T08:20:03;9.82;;;7.53;;
17193;SDS011;8713;48.388;10.928;2022-07-21T08:21:14;9.05;;;6.80;;
17193;SDS011;8713;48.388;10.928;2022-07-21T08:22:23;9.55;;;6.88;;
17193;SDS011;8713;48.388;10.928;2022-07-21T08:23:33;10.95;;;7.55;;
17193;SDS011;8713;48.388;10.928;2022-07-21T08:24:42;11.20;;;7.53;;
17193;SDS011;8713;48.388;10.928;2022-07-21T08:25:52;9.15;;;6.95;;
17193;SDS011;8713;48.388;10.928;2022-07-21T08:27:01;11.93;;;6.88;;
17193;SDS011;8713;48.388;10.928;2022-07-21T08:28:11;9.98;;;7.18;;
17193;SDS011;8713;48.388;10.928;2022-07-21T08:29:20;11.30;;;6.68;;
17193;SDS011;8713;48.388;10.928;2022-07-21T08:30:30;9.98;;;6.80;;
17193;SDS011;8713;48.388;10.928;2022-07-21T08:31:40;10.25;;;6.68;;
17193;SDS011;8713;48.388;10.928;2022-07-21T08:32:49;9.40;;;6.10;;
17193;SDS011;8713;48.388;10.928;2022-07-21T08:33:59;9.02;;;6.82;;
17193;SDS011;8713;48.388;10.928;2022-07-21T08:35:08;9.40;;;6.63;;
17193;SDS011;8713;48.388;10.928;2022-07-21T08:36:18;8.65;;;5.95;;
17193;SDS011;8713;48.388;10.928;2022-07-21T08:37:27;10.18;;;6.65;;
17193;SDS011;8713;48.388;10.928;2022-07-21T08:38:37;11.02;;;6.60;;
17193;SDS011;8713;48.388;10.928;2022-07-21T08:39:46;14.25;;;7.45;;
17193;SDS011;8713;48.388;10.928;2022-07-21T08:40:56;12.10;;;7.05;;
17193;SDS011;8713;48.388;10.928;2022-07-21T08:42:07;8.98;;;6.45;;
17193;SDS011;8713;48.388;10.928;2022-07-21T08:43:17;9.93;;;6.90;;
17193;SDS011;8713;48.388;10.928;2022-07-21T08:44:26;10.77;;;7.15;;
17193;SDS011;8713;48.388;10.928;2022-07-21T08:45:37;9.25;;;6.90;;
17193;SDS011;8713;48.388;10.928;2022-07-21T08:46:48;10.48;;;6.70;;
17193;SDS011;8713;48.388;10.928;2022-07-21T08:47:59;8.77;;;6.28;;
17193;SDS011;8713;48.388;10.928;2022-07-21T08:49:09;10.40;;;7.18;;
17193;SDS011;8713;48.388;10.928;2022-07-21T08:50:19;9.55;;;6.25;;
17193;SDS011;8713;48.388;10.928;2022-07-21T08:51:32;9.45;;;6.70;;
17193;SDS011;8713;48.388;10.928;2022-07-21T08:52:43;10.50;;;7.30;;
17193;SDS011;8713;48.388;10.928;2022-07-21T08:53:52;9.15;;;6.32;;
17193;SDS011;8713;48.388;10.928;2022-07-21T08:55:02;10.20;;;6.82;;
17193;SDS011;8713;48.388;10.928;2022-07-21T08:56:12;8.57;;;6.97;;
17193;SDS011;8713;48.388;10.928;2022-07-21T08:57:21;10.50;;;7.10;;
17193;SDS011;8713;48.388;10.928;2022-07-21T08:58:31;9.68;;;7.03;;
17193;SDS011;8713;48.388;10.928;2022-07-21T08:59:40;9.68;;;6.82;;
17193;SDS011;8713;48.388;10.928;2022-07-21T09:00:50;11.43;;;7.63;;
17193;SDS011;8713;48.388;10.928;2022-07-21T09:01:59;12.27;;;7.05;;
17193;SDS011;8713;48.388;10.928;2022-07-21T09:03:13;10.32;;;7.18;;
17193;SDS011;8713;48.388;10.928;2022-07-21T09:04:27;10.68;;;7.00;;
17193;SDS011;8713;48.388;10.928;2022-07-21T09:05:42;8.77;;;6.45;;
17193;SDS011;8713;48.388;10.928;2022-07-21T09:07:07;9.63;;;6.53;;
17193;SDS011;8713;48.388;10.928;2022-07-21T09:08:16;11.77;;;7.05;;
17193;SDS011;8713;48.388;10.928;2022-07-21T09:09:38;9.05;;;6.00;;
17193;SDS011;8713;48.388;10.928;2022-07-21T09:10:48;9.02;;;6.82;;
17193;SDS011;8713;48.388;10.928;2022-07-21T09:11:58;9.32;;;6.65;;
17193;SDS011;8713;48.388;10.928;2022-07-21T09:13:08;9.43;;;6.50;;
17193;SDS011;8713;48.388;10.928;2022-07-21T09:14:19;10.63;;;6.60;;
17193;SDS011;8713;48.388;10.928;2022-07-21T09:15:31;10.05;;;6.10;;
17193;SDS011;8713;48.388;10.928;2022-07-21T09:16:51;8.20;;;6.47;;
17193;SDS011;8713;48.388;10.928;2022-07-21T09:18:03;10.77;;;6.78;;
17193;SDS011;8713;48.388;10.928;2022-07-21T09:19:22;10.30;;;6.32;;
17193;SDS011;8713;48.388;10.928;2022-07-21T09:20:34;9.38;;;6.85;;
17193;SDS011;8713;48.388;10.928;2022-07-21T09:21:44;11.25;;;7.30;;
17193;SDS011;8713;48.388;10.928;2022-07-21T09:23:04;9.30;;;6.85;;
17193;SDS011;8713;48.388;10.928;2022-07-21T09:24:15;11.07;;;7.00;;
17193;SDS011;8713;48.388;10.928;2022-07-21T09:25:37;10.02;;;7.18;;
17193;SDS011;8713;48.388;10.928;2022-07-21T09:28:37;10.63;;;6.50;;
17193;SDS011;8713;48.388;10.928;2022-07-21T09:29:49;9.48;;;6.95;;
17193;SDS011;8713;48.388;10.928;2022-07-21T09:31:07;8.85;;;6.47;;
17193;SDS011;8713;48.388;10.928;2022-07-21T09:32:29;9.38;;;6.47;;
17193;SDS011;8713;48.388;10.928;2022-07-21T09:33:44;11.48;;;6.97;;
17193;SDS011;8713;48.388;10.928;2022-07-21T09:35:08;12.18;;;6.88;;
17193;SDS011;8713;48.388;10.928;2022-07-21T09:36:21;12.43;;;6.63;;
17193;SDS011;8713;48.388;10.928;2022-07-21T09:37:31;13.27;;;7.32;;
17193;SDS011;8713;48.388;10.928;2022-07-21T09:38:59;9.85;;;7.13;;
17193;SDS011;8713;48.388;10.928;2022-07-21T09:40:13;11.73;;;7.75;;
17193;SDS011;8713;48.388;10.928;2022-07-21T09:41:23;10.82;;;7.28;;
17193;SDS011;8713;48.388;10.928;2022-07-21T09:42:38;11.32;;;7.03;;
17193;SDS011;8713;48.388;10.928;2022-07-21T09:43:53;11.95;;;7.47;;
17193;SDS011;8713;48.388;10.928;2022-07-21T09:45:06;11.77;;;7.65;;
17193;SDS011;8713;48.388;10.928;2022-07-21T09:46:27;11.57;;;7.85;;
17193;SDS011;8713;48.388;10.928;2022-07-21T09:47:38;12.48;;;7.88;;
17193;SDS011;8713;48.388;10.928;2022-07-21T09:48:49;11.65;;;7.47;;
17193;SDS011;8713;48.388;10.928;2022-07-21T09:50:01;13.95;;;7.72;;
17193;SDS011;8713;48.388;10.928;2022-07-21T09:52:34;10.85;;;7.28;;
17193;SDS011;8713;48.388;10.928;2022-07-21T09:53:53;10.70;;;7.38;;
17193;SDS011;8713;48.388;10.928;2022-07-21T09:55:14;10.05;;;6.85;;
17193;SDS011;8713;48.388;10.928;2022-07-21T09:56:26;13.32;;;7.35;;
17193;SDS011;8713;48.388;10.928;2022-07-21T09:57:41;9.57;;;6.93;;
17193;SDS011;8713;48.388;10.928;2022-07-21T09:58:52;13.77;;;7.75;;
17193;SDS011;8713;48.388;10.928;2022-07-21T10:00:04;10.55;;;7.25;;
17193;SDS011;8713;48.388;10.928;2022-07-21T10:01:24;11.27;;;7.50;;
17193;SDS011;8713;48.388;10.928;2022-07-21T10:02:34;11.13;;;8.32;;
17193;SDS011;8713;48.388;10.928;2022-07-21T10:03:45;11.13;;;7.28;;
17193;SDS011;8713;48.388;10.928;2022-07-21T10:04:56;12.20;;;6.85;;
17193;SDS011;8713;48.388;10.928;2022-07-21T10:06:19;11.10;;;7.30;;
17193;SDS011;8713;48.388;10.928;2022-07-21T10:07:33;11.23;;;7.63;;
17193;SDS011;8713;48.388;10.928;2022-07-21T10:08:46;12.27;;;7.73;;
17193;SDS011;8713;48.388;10.928;2022-07-21T10:09:55;13.65;;;7.40;;
17193;SDS011;8713;48.388;10.928;2022-07-21T10:11:06;11.80;;;7.90;;
17193;SDS011;8713;48.388;10.928;2022-07-21T10:12:16;13.77;;;8.00;;
17193;SDS011;8713;48.388;10.928;2022-07-21T10:13:26;11.57;;;7.43;;
17193;SDS011;8713;48.388;10.928;2022-07-21T10:14:36;11.68;;;7.68;;
17193;SDS011;8713;48.388;10.928;2022-07-21T10:15:46;13.13;;;7.28;;
17193;SDS011;8713;48.388;10.928;2022-07-21T10:16:55;9.77;;;6.63;;
17193;SDS011;8713;48.388;10.928;2022-07-21T10:18:04;11.32;;;7.28;;
17193;SDS011;8713;48.388;10.928;2022-07-21T10:19:18;10.40;;;7.50;;
17193;SDS011;8713;48.388;10.928;2022-07-21T10:20:34;12.18;;;7.32;;
17193;SDS011;8713;48.388;10.928;2022-07-21T10:21:49;9.70;;;6.72;;
17193;SDS011;8713;48.388;10.928;2022-07-21T10:23:35;10.02;;;6.97;;
17193;SDS011;8713;48.388;10.928;2022-07-21T10:24:48;10.68;;;6.45;;
17193;SDS011;8713;48.388;10.928;2022-07-21T10:25:58;11.48;;;6.80;;
17193;SDS011;8713;48.388;10.928;2022-07-21T10:27:08;10.77;;;7.00;;
17193;SDS011;8713;48.388;10.928;2022-07-21T10:28:20;11.90;;;6.65;;
17193;SDS011;8713;48.388;10.928;2022-07-21T10:31:12;14.30;;;6.63;;
17193;SDS011;8713;48.388;10.928;2022-07-21T10:32:36;12.55;;;6.40;;
17193;SDS011;8713;48.388;10.928;2022-07-21T10:34:58;10.70;;;6.50;;
17193;SDS011;8713;48.388;10.928;2022-07-21T10:36:10;10.05;;;6.47;;
17193;SDS011;8713;48.388;10.928;2022-07-21T10:37:43;9.07;;;6.30;;
17193;SDS011;8713;48.388;10.928;2022-07-21T10:41:35;9.30;;;6.43;;
17193;SDS011;8713;48.388;10.928;2022-07-21T10:45:36;11.02;;;6.72;;
17193;SDS011;8713;48.388;10.928;2022-07-21T10:46:58;10.15;;;6.00;;
17193;SDS011;8713;48.388;10.928;2022-07-21T10:51:08;10.73;;;6.57;;
17193;SDS011;8713;48.388;10.928;2022-07-21T10:53:43;11.50;;;6.20;;
17193;SDS011;8713;48.388;10.928;2022-07-21T10:56:26;11.82;;;6.85;;
17193;SDS011;8713;48.388;10.928;2022-07-21T10:57:37;9.32;;;6.35;;
17193;SDS011;8713;48.388;10.928;2022-07-21T10:58:51;8.60;;;5.88;;
17193;SDS011;8713;48.388;10.928;2022-07-21T11:01:38;10.90;;;6.13;;
17193;SDS011;8713;48.388;10.928;2022-07-21T11:02:56;9.10;;;6.05;;
17193;SDS011;8713;48.388;10.928;2022-07-21T11:05:28;13.15;;;6.70;;
17193;SDS011;8713;48.388;10.928;2022-07-21T11:06:40;9.80;;;6.40;;
17193;SDS011;8713;48.388;10.928;2022-07-21T11:09:31;10.18;;;6.05;;
17193;SDS011;8713;48.388;10.928;2022-07-21T11:10:41;8.70;;;6.10;;
17193;SDS011;8713;48.388;10.928;2022-07-21T11:12:00;9.95;;;6.10;;
17193;SDS011;8713;48.388;10.928;2022-07-21T11:13:12;12.63;;;6.50;;
17193;SDS011;8713;48.388;10.928;2022-07-21T11:14:36;10.40;;;6.53;;
17193;SDS011;8713;48.388;10.928;2022-07-21T11:16:01;8.88;;;6.38;;